sensor_id;sensor_type;location;lat;lon;timestamp;pressure;altitude;pressure_sealevel;temperature;humidity
64967;BME280;51710;38.732;-121.358;2023-08-07T00:02:00;100599.06;;;38.27;24.66
64967;BME280;51710;38.732;-121.358;2023-08-07T00:04:27;100605.78;;;38.26;25.16
64967;BME280;51710;38.732;-121.358;2023-08-07T00:06:53;100597.44;;;38.26;24.87
64967;BME280;51710;38.732;-121.358;2023-08-07T00:09:20;100591.16;;;38.29;24.64
64967;BME280;51710;38.732;-121.358;2023-08-07T00:11:46;100590.38;;;38.28;25.10
64967;BME280;51710;38.732;-121.358;2023-08-07T00:14:13;100587.94;;;38.27;25.08
64967;BME280;51710;38.732;-121.358;2023-08-07T00:16:39;100586.63;;;38.24;25.08
64967;BME280;51710;38.732;-121.358;2023-08-07T00:19:05;100581.41;;;38.23;25.00
64967;BME280;51710;38.732;-121.358;2023-08-07T00:21:31;100581.41;;;38.23;24.84
64967;BME280;51710;38.732;-121.358;2023-08-07T00:23:57;100587.00;;;38.23;25.01
64967;BME280;51710;38.732;-121.358;2023-08-07T00:26:24;100583.72;;;38.21;24.95
64967;BME280;51710;38.732;-121.358;2023-08-07T00:28:50;100584.91;;;38.20;25.43
64967;BME280;51710;38.732;-121.358;2023-08-07T00:31:16;100577.69;;;38.19;24.66
64967;BME280;51710;38.732;-121.358;2023-08-07T00:33:43;100580.81;;;38.17;25.55
64967;BME280;51710;38.732;-121.358;2023-08-07T00:36:10;100577.41;;;38.12;25.94
64967;BME280;51710;38.732;-121.358;2023-08-07T00:38:36;100571.25;;;38.06;25.24
64967;BME280;51710;38.732;-121.358;2023-08-07T00:41:02;100555.59;;;38.02;25.23
64967;BME280;51710;38.732;-121.358;2023-08-07T00:43:28;100569.72;;;37.97;26.02
64967;BME280;51710;38.732;-121.358;2023-08-07T00:45:55;100567.63;;;37.94;25.70
64967;BME280;51710;38.732;-121.358;2023-08-07T00:48:21;100557.19;;;37.91;25.54
64967;BME280;51710;38.732;-121.358;2023-08-07T00:50:48;100555.56;;;37.90;25.27
64967;BME280;51710;38.732;-121.358;2023-08-07T00:53:15;100554.63;;;37.86;25.07
64967;BME280;51710;38.732;-121.358;2023-08-07T00:55:42;100557.41;;;37.86;25.46
64967;BME280;51710;38.732;-121.358;2023-08-07T00:58:09;100553.69;;;37.82;25.20
64967;BME280;51710;38.732;-121.358;2023-08-07T01:00:35;100553.09;;;37.76;24.65
64967;BME280;51710;38.732;-121.358;2023-08-07T01:03:05;100555.41;;;37.74;25.11
64967;BME280;51710;38.732;-121.358;2023-08-07T01:05:32;100543.78;;;37.72;25.59
64967;BME280;51710;38.732;-121.358;2023-08-07T01:08:02;100558.03;;;37.71;25.73
64967;BME280;51710;38.732;-121.358;2023-08-07T01:11:30;100558.72;;;37.68;25.65
64967;BME280;51710;38.732;-121.358;2023-08-07T01:13:57;100552.41;;;37.59;25.75
64967;BME280;51710;38.732;-121.358;2023-08-07T01:16:43;100547.06;;;37.54;26.01
64967;BME280;51710;38.732;-121.358;2023-08-07T01:19:23;100543.31;;;37.50;26.37
64967;BME280;51710;38.732;-121.358;2023-08-07T01:22:03;100553.84;;;37.44;26.31
64967;BME280;51710;38.732;-121.358;2023-08-07T01:24:30;100544.09;;;37.38;26.31
64967;BME280;51710;38.732;-121.358;2023-08-07T01:27:00;100552.75;;;37.37;26.41
64967;BME280;51710;38.732;-121.358;2023-08-07T01:29:35;100543.97;;;37.35;26.54
64967;BME280;51710;38.732;-121.358;2023-08-07T01:32:08;100546.75;;;37.35;26.61
64967;BME280;51710;38.732;-121.358;2023-08-07T01:34:37;100547.88;;;37.34;26.46
64967;BME280;51710;38.732;-121.358;2023-08-07T01:37:07;100550.53;;;37.30;26.41
64967;BME280;51710;38.732;-121.358;2023-08-07T01:39:36;100548.91;;;37.29;25.54
64967;BME280;51710;38.732;-121.358;2023-08-07T01:42:03;100548.44;;;37.27;25.58
64967;BME280;51710;38.732;-121.358;2023-08-07T01:44:31;100539.94;;;37.23;25.43
64967;BME280;51710;38.732;-121.358;2023-08-07T01:46:57;100546.97;;;37.21;26.25
64967;BME280;51710;38.732;-121.358;2023-08-07T01:49:23;100538.97;;;37.19;26.40
64967;BME280;51710;38.732;-121.358;2023-08-07T01:51:50;100540.94;;;37.19;26.56
64967;BME280;51710;38.732;-121.358;2023-08-07T01:54:16;100544.03;;;37.17;26.46
64967;BME280;51710;38.732;-121.358;2023-08-07T01:56:43;100545.56;;;37.15;26.36
64967;BME280;51710;38.732;-121.358;2023-08-07T01:59:09;100541.81;;;37.11;26.63
64967;BME280;51710;38.732;-121.358;2023-08-07T02:01:35;100547.38;;;37.11;26.96
64967;BME280;51710;38.732;-121.358;2023-08-07T02:04:02;100545.56;;;37.15;26.65
64967;BME280;51710;38.732;-121.358;2023-08-07T02:06:28;100547.03;;;37.12;26.56
64967;BME280;51710;38.732;-121.358;2023-08-07T02:08:54;100546.88;;;37.09;26.69
64967;BME280;51710;38.732;-121.358;2023-08-07T02:11:21;100542.50;;;37.08;26.96
64967;BME280;51710;38.732;-121.358;2023-08-07T02:13:47;100540.25;;;37.01;26.92
64967;BME280;51710;38.732;-121.358;2023-08-07T02:16:13;100539.16;;;36.94;27.47
64967;BME280;51710;38.732;-121.358;2023-08-07T02:18:40;100543.63;;;36.86;27.39
64967;BME280;51710;38.732;-121.358;2023-08-07T02:21:06;100542.38;;;36.75;27.81
64967;BME280;51710;38.732;-121.358;2023-08-07T02:23:32;100549.09;;;36.66;28.25
64967;BME280;51710;38.732;-121.358;2023-08-07T02:26:00;100549.81;;;36.54;28.52
64967;BME280;51710;38.732;-121.358;2023-08-07T02:28:26;100548.06;;;36.41;27.87
64967;BME280;51710;38.732;-121.358;2023-08-07T02:30:53;100551.19;;;36.31;28.42
64967;BME280;51710;38.732;-121.358;2023-08-07T02:33:20;100554.97;;;36.18;28.30
64967;BME280;51710;38.732;-121.358;2023-08-07T02:35:46;100542.81;;;36.02;28.54
64967;BME280;51710;38.732;-121.358;2023-08-07T02:38:12;100549.84;;;35.91;29.04
64967;BME280;51710;38.732;-121.358;2023-08-07T02:40:39;100544.63;;;35.81;28.93
64967;BME280;51710;38.732;-121.358;2023-08-07T02:43:05;100542.66;;;35.73;29.29
64967;BME280;51710;38.732;-121.358;2023-08-07T02:45:31;100540.72;;;35.65;29.09
64967;BME280;51710;38.732;-121.358;2023-08-07T02:47:57;100541.25;;;35.58;28.99
64967;BME280;51710;38.732;-121.358;2023-08-07T02:50:23;100555.72;;;35.55;29.52
64967;BME280;51710;38.732;-121.358;2023-08-07T02:52:52;100550.84;;;35.52;29.15
64967;BME280;51710;38.732;-121.358;2023-08-07T02:55:18;100556.41;;;35.44;29.19
64967;BME280;51710;38.732;-121.358;2023-08-07T02:57:44;100547.56;;;35.33;29.82
64967;BME280;51710;38.732;-121.358;2023-08-07T03:00:11;100554.88;;;35.21;29.60
64967;BME280;51710;38.732;-121.358;2023-08-07T03:02:37;100555.88;;;35.07;30.02
64967;BME280;51710;38.732;-121.358;2023-08-07T03:05:03;100552.41;;;34.93;30.18
64967;BME280;51710;38.732;-121.358;2023-08-07T03:07:30;100554.81;;;34.78;30.14
64967;BME280;51710;38.732;-121.358;2023-08-07T03:09:56;100553.44;;;34.67;30.43
64967;BME280;51710;38.732;-121.358;2023-08-07T03:12:23;100561.22;;;34.56;30.10
64967;BME280;51710;38.732;-121.358;2023-08-07T03:14:49;100561.84;;;34.45;30.81
64967;BME280;51710;38.732;-121.358;2023-08-07T03:17:15;100559.03;;;34.36;30.62
64967;BME280;51710;38.732;-121.358;2023-08-07T03:19:43;100562.53;;;34.28;31.15
64967;BME280;51710;38.732;-121.358;2023-08-07T03:22:09;100564.16;;;34.21;31.21
64967;BME280;51710;38.732;-121.358;2023-08-07T03:24:36;100564.91;;;34.13;31.53
64967;BME280;51710;38.732;-121.358;2023-08-07T03:27:02;100566.81;;;34.03;31.87
64967;BME280;51710;38.732;-121.358;2023-08-07T03:29:28;100565.41;;;33.92;31.73
64967;BME280;51710;38.732;-121.358;2023-08-07T03:31:55;100573.28;;;33.77;31.50
64967;BME280;51710;38.732;-121.358;2023-08-07T03:34:21;100572.34;;;33.59;32.25
64967;BME280;51710;38.732;-121.358;2023-08-07T03:36:47;100576.28;;;33.45;32.02
64967;BME280;51710;38.732;-121.358;2023-08-07T03:39:13;100571.59;;;33.32;32.58
64967;BME280;51710;38.732;-121.358;2023-08-07T03:41:40;100572.63;;;33.22;32.66
64967;BME280;51710;38.732;-121.358;2023-08-07T03:44:06;100572.22;;;33.15;32.51
64967;BME280;51710;38.732;-121.358;2023-08-07T03:46:32;100574.59;;;33.08;32.91
64967;BME280;51710;38.732;-121.358;2023-08-07T03:48:59;100574.50;;;32.99;32.45
64967;BME280;51710;38.732;-121.358;2023-08-07T03:51:25;100573.88;;;32.89;32.49
64967;BME280;51710;38.732;-121.358;2023-08-07T03:53:51;100582.06;;;32.80;32.91
64967;BME280;51710;38.732;-121.358;2023-08-07T03:56:18;100582.81;;;32.72;32.83
64967;BME280;51710;38.732;-121.358;2023-08-07T03:58:44;100588.22;;;32.64;33.49
64967;BME280;51710;38.732;-121.358;2023-08-07T04:01:10;100591.97;;;32.54;33.31
64967;BME280;51710;38.732;-121.358;2023-08-07T04:03:37;100598.81;;;32.43;33.67
64967;BME280;51710;38.732;-121.358;2023-08-07T04:06:04;100593.75;;;32.32;33.67
64967;BME280;51710;38.732;-121.358;2023-08-07T04:08:31;100604.16;;;32.21;34.12
64967;BME280;51710;38.732;-121.358;2023-08-07T04:11:04;100598.31;;;32.09;34.61
64967;BME280;51710;38.732;-121.358;2023-08-07T04:13:31;100609.53;;;31.99;34.19
64967;BME280;51710;38.732;-121.358;2023-08-07T04:15:58;100601.34;;;31.94;34.43
64967;BME280;51710;38.732;-121.358;2023-08-07T04:18:24;100600.88;;;31.87;35.05
64967;BME280;51710;38.732;-121.358;2023-08-07T04:20:52;100609.19;;;31.82;34.95
64967;BME280;51710;38.732;-121.358;2023-08-07T04:23:19;100601.03;;;31.77;34.68
64967;BME280;51710;38.732;-121.358;2023-08-07T04:25:47;100601.41;;;31.70;34.65
64967;BME280;51710;38.732;-121.358;2023-08-07T04:28:14;100608.41;;;31.63;35.09
64967;BME280;51710;38.732;-121.358;2023-08-07T04:30:41;100613.47;;;31.56;35.59
64967;BME280;51710;38.732;-121.358;2023-08-07T04:33:07;100616.91;;;31.48;35.65
64967;BME280;51710;38.732;-121.358;2023-08-07T04:35:34;100620.13;;;31.36;36.06
64967;BME280;51710;38.732;-121.358;2023-08-07T04:38:01;100618.88;;;31.24;36.62
64967;BME280;51710;38.732;-121.358;2023-08-07T04:40:28;100622.34;;;31.11;36.81
64967;BME280;51710;38.732;-121.358;2023-08-07T04:42:55;100626.06;;;31.01;36.78
64967;BME280;51710;38.732;-121.358;2023-08-07T04:45:21;100631.41;;;30.92;37.21
64967;BME280;51710;38.732;-121.358;2023-08-07T04:47:47;100619.94;;;30.85;36.95
64967;BME280;51710;38.732;-121.358;2023-08-07T04:50:13;100616.94;;;30.82;37.15
64967;BME280;51710;38.732;-121.358;2023-08-07T04:52:40;100619.72;;;30.77;37.36
64967;BME280;51710;38.732;-121.358;2023-08-07T04:55:06;100623.88;;;30.74;37.20
64967;BME280;51710;38.732;-121.358;2023-08-07T04:57:32;100622.53;;;30.72;37.48
64967;BME280;51710;38.732;-121.358;2023-08-07T04:59:59;100622.06;;;30.65;37.38
64967;BME280;51710;38.732;-121.358;2023-08-07T05:02:25;100626.03;;;30.54;37.57
64967;BME280;51710;38.732;-121.358;2023-08-07T05:04:51;100616.19;;;30.48;37.49
64967;BME280;51710;38.732;-121.358;2023-08-07T05:07:17;100619.81;;;30.43;37.79
64967;BME280;51710;38.732;-121.358;2023-08-07T05:09:44;100617.72;;;30.35;38.02
64967;BME280;51710;38.732;-121.358;2023-08-07T05:12:10;100622.72;;;30.28;38.46
64967;BME280;51710;38.732;-121.358;2023-08-07T05:14:36;100610.38;;;30.21;38.28
64967;BME280;51710;38.732;-121.358;2023-08-07T05:17:03;100614.56;;;30.13;38.48
64967;BME280;51710;38.732;-121.358;2023-08-07T05:19:29;100619.56;;;30.06;38.18
64967;BME280;51710;38.732;-121.358;2023-08-07T05:21:55;100618.56;;;29.97;38.68
64967;BME280;51710;38.732;-121.358;2023-08-07T05:24:22;100619.19;;;29.89;38.92
64967;BME280;51710;38.732;-121.358;2023-08-07T05:26:48;100617.59;;;29.78;39.46
64967;BME280;51710;38.732;-121.358;2023-08-07T05:29:14;100618.25;;;29.65;39.70
64967;BME280;51710;38.732;-121.358;2023-08-07T05:31:41;100624.88;;;29.54;39.65
64967;BME280;51710;38.732;-121.358;2023-08-07T05:34:07;100617.56;;;29.44;39.90
64967;BME280;51710;38.732;-121.358;2023-08-07T05:36:33;100619.00;;;29.32;40.28
64967;BME280;51710;38.732;-121.358;2023-08-07T05:38:59;100622.59;;;29.22;40.06
64967;BME280;51710;38.732;-121.358;2023-08-07T05:41:26;100620.75;;;29.13;40.63
64967;BME280;51710;38.732;-121.358;2023-08-07T05:43:52;100618.53;;;29.05;40.77
64967;BME280;51710;38.732;-121.358;2023-08-07T05:46:18;100616.38;;;28.97;41.29
64967;BME280;51710;38.732;-121.358;2023-08-07T05:48:44;100619.16;;;28.92;41.18
64967;BME280;51710;38.732;-121.358;2023-08-07T05:51:11;100620.00;;;28.87;41.37
64967;BME280;51710;38.732;-121.358;2023-08-07T05:53:37;100613.16;;;28.85;41.71
64967;BME280;51710;38.732;-121.358;2023-08-07T05:56:03;100620.31;;;28.75;41.80
64967;BME280;51710;38.732;-121.358;2023-08-07T05:58:30;100621.19;;;28.66;41.72
64967;BME280;51710;38.732;-121.358;2023-08-07T06:00:58;100618.97;;;28.58;42.06
64967;BME280;51710;38.732;-121.358;2023-08-07T06:03:25;100621.75;;;28.53;42.30
64967;BME280;51710;38.732;-121.358;2023-08-07T06:05:51;100625.59;;;28.52;42.16
64967;BME280;51710;38.732;-121.358;2023-08-07T06:08:17;100615.97;;;28.44;42.47
64967;BME280;51710;38.732;-121.358;2023-08-07T06:10:44;100624.22;;;28.39;42.92
64967;BME280;51710;38.732;-121.358;2023-08-07T06:13:10;100622.03;;;28.36;42.72
64967;BME280;51710;38.732;-121.358;2023-08-07T06:15:37;100625.06;;;28.35;42.97
64967;BME280;51710;38.732;-121.358;2023-08-07T06:18:03;100629.69;;;28.34;43.30
64967;BME280;51710;38.732;-121.358;2023-08-07T06:20:29;100625.03;;;28.30;43.32
64967;BME280;51710;38.732;-121.358;2023-08-07T06:22:56;100627.22;;;28.23;44.00
64967;BME280;51710;38.732;-121.358;2023-08-07T06:25:22;100622.03;;;28.11;44.17
64967;BME280;51710;38.732;-121.358;2023-08-07T06:27:50;100631.91;;;28.02;44.47
64967;BME280;51710;38.732;-121.358;2023-08-07T06:30:16;100636.56;;;27.92;45.02
64967;BME280;51710;38.732;-121.358;2023-08-07T06:32:42;100636.25;;;27.78;45.11
64967;BME280;51710;38.732;-121.358;2023-08-07T06:35:09;100640.06;;;27.67;45.41
64967;BME280;51710;38.732;-121.358;2023-08-07T06:37:35;100642.78;;;27.62;45.54
64967;BME280;51710;38.732;-121.358;2023-08-07T06:40:01;100642.78;;;27.62;45.91
64967;BME280;51710;38.732;-121.358;2023-08-07T06:42:28;100643.88;;;27.61;45.47
64967;BME280;51710;38.732;-121.358;2023-08-07T06:44:54;100657.56;;;27.61;45.66
64967;BME280;51710;38.732;-121.358;2023-08-07T06:47:20;100660.31;;;27.61;45.38
64967;BME280;51710;38.732;-121.358;2023-08-07T06:49:47;100647.47;;;27.61;45.22
64967;BME280;51710;38.732;-121.358;2023-08-07T06:52:13;100653.16;;;27.55;45.63
64967;BME280;51710;38.732;-121.358;2023-08-07T06:54:39;100654.25;;;27.49;45.69
64967;BME280;51710;38.732;-121.358;2023-08-07T06:57:05;100660.28;;;27.46;45.30
64967;BME280;51710;38.732;-121.358;2023-08-07T06:59:32;100662.47;;;27.44;45.94
64967;BME280;51710;38.732;-121.358;2023-08-07T07:01:58;100657.50;;;27.36;45.94
64967;BME280;51710;38.732;-121.358;2023-08-07T07:04:24;100650.66;;;27.33;45.80
64967;BME280;51710;38.732;-121.358;2023-08-07T07:06:50;100658.88;;;27.33;45.64
64967;BME280;51710;38.732;-121.358;2023-08-07T07:09:17;100667.88;;;27.34;45.55
64967;BME280;51710;38.732;-121.358;2023-08-07T07:11:43;100667.38;;;27.37;45.22
64967;BME280;51710;38.732;-121.358;2023-08-07T07:14:10;100662.97;;;27.41;44.97
64967;BME280;51710;38.732;-121.358;2023-08-07T07:16:36;100664.91;;;27.40;45.22
64967;BME280;51710;38.732;-121.358;2023-08-07T07:19:04;100667.38;;;27.37;45.13
64967;BME280;51710;38.732;-121.358;2023-08-07T07:21:30;100671.19;;;27.36;45.51
64967;BME280;51710;38.732;-121.358;2023-08-07T07:23:56;100675.03;;;27.35;45.45
64967;BME280;51710;38.732;-121.358;2023-08-07T07:26:22;100676.63;;;27.31;45.60
64967;BME280;51710;38.732;-121.358;2023-08-07T07:28:49;100674.41;;;27.28;45.75
64967;BME280;51710;38.732;-121.358;2023-08-07T07:31:17;100677.94;;;27.23;45.75
64967;BME280;51710;38.732;-121.358;2023-08-07T07:33:43;100670.25;;;27.15;46.42
64967;BME280;51710;38.732;-121.358;2023-08-07T07:36:17;100674.84;;;27.00;46.41
64967;BME280;51710;38.732;-121.358;2023-08-07T07:38:44;100673.09;;;26.84;46.77
64967;BME280;51710;38.732;-121.358;2023-08-07T07:41:11;100678.50;;;26.74;46.71
64967;BME280;51710;38.732;-121.358;2023-08-07T07:43:37;100682.06;;;26.69;46.71
64967;BME280;51710;38.732;-121.358;2023-08-07T07:46:04;100678.75;;;26.67;46.43
64967;BME280;51710;38.732;-121.358;2023-08-07T07:48:30;100680.06;;;26.64;46.40
64967;BME280;51710;38.732;-121.358;2023-08-07T07:51:02;100669.41;;;26.63;46.59
64967;BME280;51710;38.732;-121.358;2023-08-07T07:53:28;100677.31;;;26.59;46.99
64967;BME280;51710;38.732;-121.358;2023-08-07T07:55:55;100677.84;;;26.56;46.89
64967;BME280;51710;38.732;-121.358;2023-08-07T07:58:21;100682.69;;;26.49;46.99
64967;BME280;51710;38.732;-121.358;2023-08-07T08:00:48;100684.31;;;26.45;47.41
64967;BME280;51710;38.732;-121.358;2023-08-07T08:03:14;100679.06;;;26.39;47.63
64967;BME280;51710;38.732;-121.358;2023-08-07T08:05:40;100688.53;;;26.26;47.83
64967;BME280;51710;38.732;-121.358;2023-08-07T08:08:07;100684.59;;;26.12;48.25
64967;BME280;51710;38.732;-121.358;2023-08-07T08:10:33;100688.53;;;26.00;48.71
64967;BME280;51710;38.732;-121.358;2023-08-07T08:13:00;100691.94;;;25.85;48.78
64967;BME280;51710;38.732;-121.358;2023-08-07T08:15:26;100694.56;;;25.75;48.98
64967;BME280;51710;38.732;-121.358;2023-08-07T08:17:52;100700.50;;;25.67;48.93
64967;BME280;51710;38.732;-121.358;2023-08-07T08:20:18;100703.16;;;25.62;48.80
64967;BME280;51710;38.732;-121.358;2023-08-07T08:22:45;100699.50;;;25.51;49.37
64967;BME280;51710;38.732;-121.358;2023-08-07T08:25:12;100695.00;;;25.40;49.25
64967;BME280;51710;38.732;-121.358;2023-08-07T08:27:39;100688.66;;;25.35;49.13
64967;BME280;51710;38.732;-121.358;2023-08-07T08:30:06;100688.25;;;25.26;49.25
64967;BME280;51710;38.732;-121.358;2023-08-07T08:32:33;100687.13;;;25.22;49.34
64967;BME280;51710;38.732;-121.358;2023-08-07T08:34:59;100686.03;;;25.23;49.44
64967;BME280;51710;38.732;-121.358;2023-08-07T08:37:26;100683.81;;;25.20;49.27
64967;BME280;51710;38.732;-121.358;2023-08-07T08:39:52;100685.97;;;25.18;49.55
64967;BME280;51710;38.732;-121.358;2023-08-07T08:42:19;100675.84;;;25.14;49.90
64967;BME280;51710;38.732;-121.358;2023-08-07T08:44:52;100671.31;;;25.03;50.08
64967;BME280;51710;38.732;-121.358;2023-08-07T08:47:25;100668.03;;;25.01;49.71
64967;BME280;51710;38.732;-121.358;2023-08-07T08:50:04;100672.97;;;25.04;49.34
64967;BME280;51710;38.732;-121.358;2023-08-07T08:52:32;100674.13;;;25.08;49.53
64967;BME280;51710;38.732;-121.358;2023-08-07T08:54:58;100671.97;;;25.10;49.11
64967;BME280;51710;38.732;-121.358;2023-08-07T08:57:25;100678.25;;;25.10;48.66
64967;BME280;51710;38.732;-121.358;2023-08-07T08:59:52;100663.78;;;25.10;49.16
64967;BME280;51710;38.732;-121.358;2023-08-07T09:02:19;100672.22;;;25.08;49.36
64967;BME280;51710;38.732;-121.358;2023-08-07T09:04:45;100663.22;;;25.08;49.11
64967;BME280;51710;38.732;-121.358;2023-08-07T09:07:14;100666.19;;;25.06;49.37
64967;BME280;51710;38.732;-121.358;2023-08-07T09:09:41;100676.41;;;24.94;49.64
64967;BME280;51710;38.732;-121.358;2023-08-07T09:12:16;100668.44;;;24.71;50.03
64967;BME280;51710;38.732;-121.358;2023-08-07T09:14:45;100672.38;;;24.64;50.15
64967;BME280;51710;38.732;-121.358;2023-08-07T09:17:16;100674.75;;;24.60;50.69
64967;BME280;51710;38.732;-121.358;2023-08-07T09:19:43;100678.50;;;24.54;50.61
64967;BME280;51710;38.732;-121.358;2023-08-07T09:22:09;100669.94;;;24.45;50.36
64967;BME280;51710;38.732;-121.358;2023-08-07T09:24:35;100675.06;;;24.42;50.47
64967;BME280;51710;38.732;-121.358;2023-08-07T09:27:02;100670.44;;;24.42;50.32
64967;BME280;51710;38.732;-121.358;2023-08-07T09:29:31;100661.19;;;24.43;50.20
64967;BME280;51710;38.732;-121.358;2023-08-07T09:32:00;100669.59;;;24.42;50.36
64967;BME280;51710;38.732;-121.358;2023-08-07T09:34:31;100664.66;;;24.39;50.18
64967;BME280;51710;38.732;-121.358;2023-08-07T09:36:58;100662.09;;;24.32;50.25
64967;BME280;51710;38.732;-121.358;2023-08-07T09:39:24;100662.28;;;24.26;50.93
64967;BME280;51710;38.732;-121.358;2023-08-07T09:41:53;100658.88;;;24.19;50.50
64967;BME280;51710;38.732;-121.358;2023-08-07T09:44:21;100663.16;;;24.15;50.58
64967;BME280;51710;38.732;-121.358;2023-08-07T09:46:47;100661.19;;;24.10;51.20
64967;BME280;51710;38.732;-121.358;2023-08-07T09:49:14;100667.16;;;24.07;50.70
64967;BME280;51710;38.732;-121.358;2023-08-07T09:51:47;100664.50;;;24.12;50.18
64967;BME280;51710;38.732;-121.358;2023-08-07T09:54:13;100663.03;;;24.21;49.01
64967;BME280;51710;38.732;-121.358;2023-08-07T09:56:43;100663.69;;;24.28;48.73
64967;BME280;51710;38.732;-121.358;2023-08-07T09:59:11;100659.13;;;24.34;48.40
64967;BME280;51710;38.732;-121.358;2023-08-07T10:01:38;100653.44;;;24.35;48.50
64967;BME280;51710;38.732;-121.358;2023-08-07T10:04:09;100660.03;;;24.39;47.90
64967;BME280;51710;38.732;-121.358;2023-08-07T10:06:41;100652.44;;;24.41;47.50
64967;BME280;51710;38.732;-121.358;2023-08-07T10:09:07;100647.31;;;24.45;46.99
64967;BME280;51710;38.732;-121.358;2023-08-07T10:11:34;100652.25;;;24.48;46.81
64967;BME280;51710;38.732;-121.358;2023-08-07T10:14:01;100650.13;;;24.50;46.71
64967;BME280;51710;38.732;-121.358;2023-08-07T10:16:28;100655.31;;;24.51;47.13
64967;BME280;51710;38.732;-121.358;2023-08-07T10:18:55;100659.38;;;24.49;47.31
64967;BME280;51710;38.732;-121.358;2023-08-07T10:21:23;100661.69;;;24.40;47.44
64967;BME280;51710;38.732;-121.358;2023-08-07T10:23:53;100665.91;;;24.31;47.83
64967;BME280;51710;38.732;-121.358;2023-08-07T10:26:21;100656.56;;;24.27;47.30
64967;BME280;51710;38.732;-121.358;2023-08-07T10:28:50;100655.75;;;24.27;46.57
64967;BME280;51710;38.732;-121.358;2023-08-07T10:31:18;100655.50;;;24.28;46.27
64967;BME280;51710;38.732;-121.358;2023-08-07T10:33:46;100665.06;;;24.31;46.63
64967;BME280;51710;38.732;-121.358;2023-08-07T10:36:16;100664.22;;;24.30;46.67
64967;BME280;51710;38.732;-121.358;2023-08-07T10:38:42;100660.47;;;24.31;46.51
64967;BME280;51710;38.732;-121.358;2023-08-07T10:41:13;100655.00;;;24.31;46.26
64967;BME280;51710;38.732;-121.358;2023-08-07T10:43:44;100656.41;;;24.34;45.55
64967;BME280;51710;38.732;-121.358;2023-08-07T10:46:20;100662.16;;;24.37;45.65
64967;BME280;51710;38.732;-121.358;2023-08-07T10:48:58;100663.31;;;24.41;45.29
64967;BME280;51710;38.732;-121.358;2023-08-07T10:51:32;100659.03;;;24.45;45.22
64967;BME280;51710;38.732;-121.358;2023-08-07T10:53:59;100660.19;;;24.49;45.25
64967;BME280;51710;38.732;-121.358;2023-08-07T10:56:36;100666.78;;;24.53;44.77
64967;BME280;51710;38.732;-121.358;2023-08-07T10:59:10;100663.81;;;24.55;44.80
64967;BME280;51710;38.732;-121.358;2023-08-07T11:01:43;100657.56;;;24.55;45.04
64967;BME280;51710;38.732;-121.358;2023-08-07T11:04:14;100666.78;;;24.53;44.94
64967;BME280;51710;38.732;-121.358;2023-08-07T11:06:42;100663.72;;;24.50;45.01
64967;BME280;51710;38.732;-121.358;2023-08-07T11:09:10;100675.97;;;24.47;45.30
64967;BME280;51710;38.732;-121.358;2023-08-07T11:11:41;100665.47;;;24.39;45.85
64967;BME280;51710;38.732;-121.358;2023-08-07T11:14:09;100670.69;;;24.24;46.16
64967;BME280;51710;38.732;-121.358;2023-08-07T11:16:36;100667.81;;;24.14;46.02
64967;BME280;51710;38.732;-121.358;2023-08-07T11:19:03;100670.44;;;24.09;45.69
64967;BME280;51710;38.732;-121.358;2023-08-07T11:21:33;100671.25;;;24.10;45.60
64967;BME280;51710;38.732;-121.358;2023-08-07T11:24:00;100663.91;;;24.10;45.43
64967;BME280;51710;38.732;-121.358;2023-08-07T11:26:27;100671.00;;;24.11;45.38
64967;BME280;51710;38.732;-121.358;2023-08-07T11:28:57;100664.75;;;24.11;45.64
64967;BME280;51710;38.732;-121.358;2023-08-07T11:31:24;100675.78;;;24.04;46.09
64967;BME280;51710;38.732;-121.358;2023-08-07T11:34:00;100666.84;;;23.92;46.64
64967;BME280;51710;38.732;-121.358;2023-08-07T11:36:28;100671.06;;;23.83;46.71
64967;BME280;51710;38.732;-121.358;2023-08-07T11:38:55;100676.72;;;23.82;46.30
64967;BME280;51710;38.732;-121.358;2023-08-07T11:41:21;100674.81;;;23.82;45.85
64967;BME280;51710;38.732;-121.358;2023-08-07T11:43:48;100674.56;;;23.84;45.77
64967;BME280;51710;38.732;-121.358;2023-08-07T11:46:15;100679.53;;;23.87;45.56
64967;BME280;51710;38.732;-121.358;2023-08-07T11:48:43;100680.44;;;23.92;45.02
64967;BME280;51710;38.732;-121.358;2023-08-07T11:51:10;100678.06;;;23.96;45.25
64967;BME280;51710;38.732;-121.358;2023-08-07T11:53:38;100677.38;;;24.00;44.96
64967;BME280;51710;38.732;-121.358;2023-08-07T11:56:09;100675.22;;;24.02;44.76
64967;BME280;51710;38.732;-121.358;2023-08-07T11:58:41;100679.59;;;24.03;44.88
64967;BME280;51710;38.732;-121.358;2023-08-07T12:01:15;100680.41;;;24.04;44.75
64967;BME280;51710;38.732;-121.358;2023-08-07T12:03:55;100682.31;;;24.03;44.98
64967;BME280;51710;38.732;-121.358;2023-08-07T12:06:23;100689.19;;;23.94;45.67
64967;BME280;51710;38.732;-121.358;2023-08-07T12:08:53;100680.91;;;23.73;46.17
64967;BME280;51710;38.732;-121.358;2023-08-07T12:11:20;100688.44;;;23.54;46.71
64967;BME280;51710;38.732;-121.358;2023-08-07T12:13:47;100690.88;;;23.39;47.23
64967;BME280;51710;38.732;-121.358;2023-08-07T12:16:14;100692.75;;;23.27;47.38
64967;BME280;51710;38.732;-121.358;2023-08-07T12:18:46;100690.53;;;23.24;47.05
64967;BME280;51710;38.732;-121.358;2023-08-07T12:21:15;100692.31;;;23.30;46.77
64967;BME280;51710;38.732;-121.358;2023-08-07T12:23:44;100691.09;;;23.37;46.85